sensor_id;sensor_type;location;lat;lon;timestamp;temperature;humidity
14877;DHT22;22152;48.158;17.118;2023-03-21T00:00:11;12.20;76.70
14877;DHT22;22152;48.158;17.118;2023-03-21T00:03:06;12.30;76.60
14877;DHT22;22152;48.158;17.118;2023-03-21T00:05:43;12.30;76.50
14877;DHT22;22152;48.158;17.118;2023-03-21T00:08:39;12.20;77.20
14877;DHT22;22152;48.158;17.118;2023-03-21T00:11:12;12.20;76.50
14877;DHT22;22152;48.158;17.118;2023-03-21T00:14:05;12.20;76.60
14877;DHT22;22152;48.158;17.118;2023-03-21T00:16:39;12.20;76.70
14877;DHT22;22152;48.158;17.118;2023-03-21T00:19:36;12.20;76.70
14877;DHT22;22152;48.158;17.118;2023-03-21T00:22:09;12.10;76.60
14877;DHT22;22152;48.158;17.118;2023-03-21T00:25:02;12.10;76.60
14877;DHT22;22152;48.158;17.118;2023-03-21T00:27:34;12.10;76.60
14877;DHT22;22152;48.158;17.118;2023-03-21T00:30:28;12.10;76.50
14877;DHT22;22152;48.158;17.118;2023-03-21T00:33:00;12.10;76.80
14877;DHT22;22152;48.158;17.118;2023-03-21T00:35:53;12.10;76.80
14877;DHT22;22152;48.158;17.118;2023-03-21T00:38:25;12.10;77.00
14877;DHT22;22152;48.158;17.118;2023-03-21T00:41:19;12.10;76.90
14877;DHT22;22152;48.158;17.118;2023-03-21T00:43:51;12.10;77.00
14877;DHT22;22152;48.158;17.118;2023-03-21T00:46:44;12.10;76.90
14877;DHT22;22152;48.158;17.118;2023-03-21T00:49:16;12.10;76.80
14877;DHT22;22152;48.158;17.118;2023-03-21T00:52:09;12.00;76.60
14877;DHT22;22152;48.158;17.118;2023-03-21T00:54:49;12.00;76.70
14877;DHT22;22152;48.158;17.118;2023-03-21T00:57:35;12.00;76.80
14877;DHT22;22152;48.158;17.118;2023-03-21T01:00:15;12.00;77.00
14877;DHT22;22152;48.158;17.118;2023-03-21T01:03:01;12.00;76.90
14877;DHT22;22152;48.158;17.118;2023-03-21T01:05:47;12.00;76.90
14877;DHT22;22152;48.158;17.118;2023-03-21T01:08:42;12.00;77.00
14877;DHT22;22152;48.158;17.118;2023-03-21T01:11:24;12.00;77.00
14877;DHT22;22152;48.158;17.118;2023-03-21T01:14:13;11.90;76.90
14877;DHT22;22152;48.158;17.118;2023-03-21T01:16:54;11.90;76.90
14877;DHT22;22152;48.158;17.118;2023-03-21T01:19:40;11.90;77.00
14877;DHT22;22152;48.158;17.118;2023-03-21T01:22:19;11.90;77.00
14877;DHT22;22152;48.158;17.118;2023-03-21T01:25:05;11.90;77.10
14877;DHT22;22152;48.158;17.118;2023-03-21T01:27:45;11.90;77.00
14877;DHT22;22152;48.158;17.118;2023-03-21T01:30:32;11.80;77.00
14877;DHT22;22152;48.158;17.118;2023-03-21T01:33:19;11.80;77.30
14877;DHT22;22152;48.158;17.118;2023-03-21T01:36:14;11.70;77.60
14877;DHT22;22152;48.158;17.118;2023-03-21T01:38:50;11.60;77.20
14877;DHT22;22152;48.158;17.118;2023-03-21T01:41:43;11.60;78.00
14877;DHT22;22152;48.158;17.118;2023-03-21T01:44:18;11.60;78.20
14877;DHT22;22152;48.158;17.118;2023-03-21T01:47:12;11.60;78.00
14877;DHT22;22152;48.158;17.118;2023-03-21T01:49:46;11.50;78.10
14877;DHT22;22152;48.158;17.118;2023-03-21T01:52:51;11.50;78.20
14877;DHT22;22152;48.158;17.118;2023-03-21T01:55:33;11.60;78.20
14877;DHT22;22152;48.158;17.118;2023-03-21T01:58:31;11.50;77.90
14877;DHT22;22152;48.158;17.118;2023-03-21T02:01:26;11.60;77.90
14877;DHT22;22152;48.158;17.118;2023-03-21T02:04:12;11.50;78.00
14877;DHT22;22152;48.158;17.118;2023-03-21T02:07:12;11.50;78.10
14877;DHT22;22152;48.158;17.118;2023-03-21T02:10:12;11.50;78.00
14877;DHT22;22152;48.158;17.118;2023-03-21T02:13:03;11.50;78.20
14877;DHT22;22152;48.158;17.118;2023-03-21T02:28:35;11.40;78.20
14877;DHT22;22152;48.158;17.118;2023-03-21T02:31:31;11.30;78.40
14877;DHT22;22152;48.158;17.118;2023-03-21T02:38:14;11.30;78.50
14877;DHT22;22152;48.158;17.118;2023-03-21T02:47:48;11.10;79.00
14877;DHT22;22152;48.158;17.118;2023-03-21T02:53:39;11.00;79.20
14877;DHT22;22152;48.158;17.118;2023-03-21T02:56:20;11.00;79.40
14877;DHT22;22152;48.158;17.118;2023-03-21T02:59:08;11.00;79.40
14877;DHT22;22152;48.158;17.118;2023-03-21T03:01:50;11.00;79.50
14877;DHT22;22152;48.158;17.118;2023-03-21T03:04:37;11.00;79.60
14877;DHT22;22152;48.158;17.118;2023-03-21T03:07:44;10.90;79.60
14877;DHT22;22152;48.158;17.118;2023-03-21T03:13:53;10.80;80.00
14877;DHT22;22152;48.158;17.118;2023-03-21T03:19:57;10.60;80.40
14877;DHT22;22152;48.158;17.118;2023-03-21T03:23:35;10.60;80.70
14877;DHT22;22152;48.158;17.118;2023-03-21T03:26:32;10.50;80.70
14877;DHT22;22152;48.158;17.118;2023-03-21T03:29:21;10.40;81.10
14877;DHT22;22152;48.158;17.118;2023-03-21T03:32:20;10.30;81.60
14877;DHT22;22152;48.158;17.118;2023-03-21T03:35:17;10.30;81.60
14877;DHT22;22152;48.158;17.118;2023-03-21T03:37:57;10.10;81.40
14877;DHT22;22152;48.158;17.118;2023-03-21T03:41:01;10.10;81.80
14877;DHT22;22152;48.158;17.118;2023-03-21T03:43:47;9.90;83.10
14877;DHT22;22152;48.158;17.118;2023-03-21T03:46:55;9.80;83.30
14877;DHT22;22152;48.158;17.118;2023-03-21T03:52:43;9.70;84.20
14877;DHT22;22152;48.158;17.118;2023-03-21T03:55:20;9.70;84.30
14877;DHT22;22152;48.158;17.118;2023-03-21T03:58:24;9.60;84.30
14877;DHT22;22152;48.158;17.118;2023-03-21T04:00:57;9.60;84.50
14877;DHT22;22152;48.158;17.118;2023-03-21T04:03:51;9.50;84.70
14877;DHT22;22152;48.158;17.118;2023-03-21T04:06:23;9.50;85.20
14877;DHT22;22152;48.158;17.118;2023-03-21T04:09:17;9.50;85.30
14877;DHT22;22152;48.158;17.118;2023-03-21T04:11:50;9.50;85.80
14877;DHT22;22152;48.158;17.118;2023-03-21T04:14:43;9.50;85.80
14877;DHT22;22152;48.158;17.118;2023-03-21T04:17:17;9.60;86.90
14877;DHT22;22152;48.158;17.118;2023-03-21T04:20:11;9.60;86.50
14877;DHT22;22152;48.158;17.118;2023-03-21T04:22:44;9.70;86.80
14877;DHT22;22152;48.158;17.118;2023-03-21T04:25:37;9.70;86.90
14877;DHT22;22152;48.158;17.118;2023-03-21T04:28:09;9.80;86.90
14877;DHT22;22152;48.158;17.118;2023-03-21T04:31:35;9.90;86.70
14877;DHT22;22152;48.158;17.118;2023-03-21T04:34:28;9.90;87.00
14877;DHT22;22152;48.158;17.118;2023-03-21T04:37:01;9.90;87.10
14877;DHT22;22152;48.158;17.118;2023-03-21T04:39:57;10.00;85.90
14877;DHT22;22152;48.158;17.118;2023-03-21T04:42:29;10.00;86.40
14877;DHT22;22152;48.158;17.118;2023-03-21T04:45:22;10.10;86.30
14877;DHT22;22152;48.158;17.118;2023-03-21T04:47:54;10.20;86.30
14877;DHT22;22152;48.158;17.118;2023-03-21T04:50:46;10.30;86.00
14877;DHT22;22152;48.158;17.118;2023-03-21T04:53:19;10.30;86.10
14877;DHT22;22152;48.158;17.118;2023-03-21T04:56:12;10.30;86.00
14877;DHT22;22152;48.158;17.118;2023-03-21T04:58:51;10.40;86.10
14877;DHT22;22152;48.158;17.118;2023-03-21T05:01:38;10.40;85.80
14877;DHT22;22152;48.158;17.118;2023-03-21T05:04:22;10.40;85.90
14877;DHT22;22152;48.158;17.118;2023-03-21T05:07:08;10.50;85.90
14877;DHT22;22152;48.158;17.118;2023-03-21T05:09:47;10.60;86.10
14877;DHT22;22152;48.158;17.118;2023-03-21T05:12:33;10.60;85.80
14877;DHT22;22152;48.158;17.118;2023-03-21T05:15:12;10.60;85.90
14877;DHT22;22152;48.158;17.118;2023-03-21T05:17:58;10.60;85.70
14877;DHT22;22152;48.158;17.118;2023-03-21T05:20:40;10.70;86.00
14877;DHT22;22152;48.158;17.118;2023-03-21T05:23:32;10.80;85.90
14877;DHT22;22152;48.158;17.118;2023-03-21T05:26:16;10.80;85.70
14877;DHT22;22152;48.158;17.118;2023-03-21T05:29:16;10.80;85.70
14877;DHT22;22152;48.158;17.118;2023-03-21T05:32:14;10.90;85.80
14877;DHT22;22152;48.158;17.118;2023-03-21T05:35:08;11.00;85.80
14877;DHT22;22152;48.158;17.118;2023-03-21T05:37:41;11.10;85.80
14877;DHT22;22152;48.158;17.118;2023-03-21T05:40:34;11.20;85.40
14877;DHT22;22152;48.158;17.118;2023-03-21T05:43:07;11.30;85.00
14877;DHT22;22152;48.158;17.118;2023-03-21T05:45:59;11.40;84.90
14877;DHT22;22152;48.158;17.118;2023-03-21T05:48:32;11.50;84.60
14877;DHT22;22152;48.158;17.118;2023-03-21T05:51:27;11.60;84.10
14877;DHT22;22152;48.158;17.118;2023-03-21T05:54:00;11.70;83.70
14877;DHT22;22152;48.158;17.118;2023-03-21T05:56:53;11.70;83.50
14877;DHT22;22152;48.158;17.118;2023-03-21T06:00:04;11.80;83.30
14877;DHT22;22152;48.158;17.118;2023-03-21T06:03:05;12.00;83.20
14877;DHT22;22152;48.158;17.118;2023-03-21T06:06:01;12.10;82.40
14877;DHT22;22152;48.158;17.118;2023-03-21T06:08:55;12.20;82.10
14877;DHT22;22152;48.158;17.118;2023-03-21T06:11:37;12.30;81.30
14877;DHT22;22152;48.158;17.118;2023-03-21T06:14:35;12.40;80.60
14877;DHT22;22152;48.158;17.118;2023-03-21T06:17:35;12.50;80.40
14877;DHT22;22152;48.158;17.118;2023-03-21T06:20:21;12.60;79.90
14877;DHT22;22152;48.158;17.118;2023-03-21T06:23:08;12.90;80.00
14877;DHT22;22152;48.158;17.118;2023-03-21T06:25:53;13.10;78.60
14877;DHT22;22152;48.158;17.118;2023-03-21T06:28:34;13.40;77.20
14877;DHT22;22152;48.158;17.118;2023-03-21T06:31:20;13.50;75.80
14877;DHT22;22152;48.158;17.118;2023-03-21T06:34:12;13.70;75.50
14877;DHT22;22152;48.158;17.118;2023-03-21T06:37:05;13.80;75.20
14877;DHT22;22152;48.158;17.118;2023-03-21T06:39:38;14.20;74.10
14877;DHT22;22152;48.158;17.118;2023-03-21T06:42:32;14.50;72.60
14877;DHT22;22152;48.158;17.118;2023-03-21T06:45:09;14.70;71.00
14877;DHT22;22152;48.158;17.118;2023-03-21T06:48:01;15.00;69.50
14877;DHT22;22152;48.158;17.118;2023-03-21T06:50:43;15.50;67.70
14877;DHT22;22152;48.158;17.118;2023-03-21T06:53:38;15.80;65.80
14877;DHT22;22152;48.158;17.118;2023-03-21T06:56:19;16.10;64.10
14877;DHT22;22152;48.158;17.118;2023-03-21T06:59:13;16.20;62.90
14877;DHT22;22152;48.158;17.118;2023-03-21T07:02:00;16.40;62.20
14877;DHT22;22152;48.158;17.118;2023-03-21T07:04:52;16.30;61.40
14877;DHT22;22152;48.158;17.118;2023-03-21T07:07:33;16.30;61.20
14877;DHT22;22152;48.158;17.118;2023-03-21T07:10:19;16.20;60.40
14877;DHT22;22152;48.158;17.118;2023-03-21T07:13:06;16.00;60.30
14877;DHT22;22152;48.158;17.118;2023-03-21T07:15:59;15.60;60.70
14877;DHT22;22152;48.158;17.118;2023-03-21T07:18:38;15.50;61.30
14877;DHT22;22152;48.158;17.118;2023-03-21T07:21:24;15.40;61.40
14877;DHT22;22152;48.158;17.118;2023-03-21T07:24:04;15.30;61.50
14877;DHT22;22152;48.158;17.118;2023-03-21T07:26:49;15.20;61.00
14877;DHT22;22152;48.158;17.118;2023-03-21T07:29:28;15.00;61.50
14877;DHT22;22152;48.158;17.118;2023-03-21T07:32:14;14.80;62.30
14877;DHT22;22152;48.158;17.118;2023-03-21T07:35:10;14.80;62.40
14877;DHT22;22152;48.158;17.118;2023-03-21T07:37:44;14.80;62.80
14877;DHT22;22152;48.158;17.118;2023-03-21T07:40:36;14.80;62.70
14877;DHT22;22152;48.158;17.118;2023-03-21T07:43:09;14.90;63.10
14877;DHT22;22152;48.158;17.118;2023-03-21T07:46:04;14.90;62.80
14877;DHT22;22152;48.158;17.118;2023-03-21T07:48:39;15.00;62.60
14877;DHT22;22152;48.158;17.118;2023-03-21T07:51:31;15.00;62.40
14877;DHT22;22152;48.158;17.118;2023-03-21T07:54:08;15.00;62.70
14877;DHT22;22152;48.158;17.118;2023-03-21T07:57:05;15.00;62.60
14877;DHT22;22152;48.158;17.118;2023-03-21T07:59:38;15.00;62.60
14877;DHT22;22152;48.158;17.118;2023-03-21T08:02:30;14.90;62.70
14877;DHT22;22152;48.158;17.118;2023-03-21T08:05:03;14.90;62.80
14877;DHT22;22152;48.158;17.118;2023-03-21T08:07:56;14.80;63.10
14877;DHT22;22152;48.158;17.118;2023-03-21T08:10:29;14.80;63.20
14877;DHT22;22152;48.158;17.118;2023-03-21T08:13:22;14.80;63.10
14877;DHT22;22152;48.158;17.118;2023-03-21T08:15:56;14.90;63.20
14877;DHT22;22152;48.158;17.118;2023-03-21T08:18:49;15.00;63.10
14877;DHT22;22152;48.158;17.118;2023-03-21T08:21:22;15.20;62.50
14877;DHT22;22152;48.158;17.118;2023-03-21T08:24:15;15.40;61.30
14877;DHT22;22152;48.158;17.118;2023-03-21T08:26:48;15.60;59.90
14877;DHT22;22152;48.158;17.118;2023-03-21T08:29:40;15.70;59.30
14877;DHT22;22152;48.158;17.118;2023-03-21T08:32:13;15.80;59.10
14877;DHT22;22152;48.158;17.118;2023-03-21T08:35:07;15.90;58.70
14877;DHT22;22152;48.158;17.118;2023-03-21T08:37:42;16.00;58.10
14877;DHT22;22152;48.158;17.118;2023-03-21T08:40:36;16.00;58.10
14877;DHT22;22152;48.158;17.118;2023-03-21T08:43:08;15.90;57.80
14877;DHT22;22152;48.158;17.118;2023-03-21T08:46:01;16.00;57.70
14877;DHT22;22152;48.158;17.118;2023-03-21T08:48:34;16.30;57.40
14877;DHT22;22152;48.158;17.118;2023-03-21T08:51:27;16.60;56.80
14877;DHT22;22152;48.158;17.118;2023-03-21T08:53:59;16.90;55.70
14877;DHT22;22152;48.158;17.118;2023-03-21T08:56:52;17.20;55.30
14877;DHT22;22152;48.158;17.118;2023-03-21T08:59:24;17.60;54.30
14877;DHT22;22152;48.158;17.118;2023-03-21T09:02:17;17.90;53.80
14877;DHT22;22152;48.158;17.118;2023-03-21T09:04:56;18.10;51.60
14877;DHT22;22152;48.158;17.118;2023-03-21T09:07:44;18.00;50.70
14877;DHT22;22152;48.158;17.118;2023-03-21T09:10:23;17.90;50.60
14877;DHT22;22152;48.158;17.118;2023-03-21T09:13:09;18.00;50.60
14877;DHT22;22152;48.158;17.118;2023-03-21T09:15:49;18.20;50.20
14877;DHT22;22152;48.158;17.118;2023-03-21T09:18:38;18.30;49.80
14877;DHT22;22152;48.158;17.118;2023-03-21T09:21:27;18.10;49.60
14877;DHT22;22152;48.158;17.118;2023-03-21T09:24:12;18.10;50.10
14877;DHT22;22152;48.158;17.118;2023-03-21T09:26:53;18.10;49.90
14877;DHT22;22152;48.158;17.118;2023-03-21T09:29:39;18.20;49.80
14877;DHT22;22152;48.158;17.118;2023-03-21T09:32:27;18.10;49.30
14877;DHT22;22152;48.158;17.118;2023-03-21T09:35:20;17.80;49.10
14877;DHT22;22152;48.158;17.118;2023-03-21T09:37:54;17.40;49.60
14877;DHT22;22152;48.158;17.118;2023-03-21T09:47:29;17.80;48.80
14877;DHT22;22152;48.158;17.118;2023-03-21T09:50:14;18.40;48.10
14877;DHT22;22152;48.158;17.118;2023-03-21T09:53:21;18.80;47.20
14877;DHT22;22152;48.158;17.118;2023-03-21T09:55:59;19.20;46.50
14877;DHT22;22152;48.158;17.118;2023-03-21T09:58:56;19.40;45.50
14877;DHT22;22152;48.158;17.118;2023-03-21T10:01:31;19.50;45.00
14877;DHT22;22152;48.158;17.118;2023-03-21T10:04:26;19.40;44.10
14877;DHT22;22152;48.158;17.118;2023-03-21T10:07:10;19.10;44.10
14877;DHT22;22152;48.158;17.118;2023-03-21T10:09:59;18.70;44.50
14877;DHT22;22152;48.158;17.118;2023-03-21T10:12:40;18.50;45.00
14877;DHT22;22152;48.158;17.118;2023-03-21T10:15:27;18.20;45.00
14877;DHT22;22152;48.158;17.118;2023-03-21T10:18:09;18.10;45.40
14877;DHT22;22152;48.158;17.118;2023-03-21T10:20:59;18.00;46.00
14877;DHT22;22152;48.158;17.118;2023-03-21T10:23:39;18.00;45.70
14877;DHT22;22152;48.158;17.118;2023-03-21T10:26:27;18.10;45.80
14877;DHT22;22152;48.158;17.118;2023-03-21T10:29:11;18.30;46.00
14877;DHT22;22152;48.158;17.118;2023-03-21T10:32:01;18.50;45.40
14877;DHT22;22152;48.158;17.118;2023-03-21T10:34:54;18.60;45.30
14877;DHT22;22152;48.158;17.118;2023-03-21T10:37:49;18.60;44.90
14877;DHT22;22152;48.158;17.118;2023-03-21T10:40:21;18.60;45.30
14877;DHT22;22152;48.158;17.118;2023-03-21T10:43:41;18.80;45.10
14877;DHT22;22152;48.158;17.118;2023-03-21T10:46:19;19.40;45.40
14877;DHT22;22152;48.158;17.118;2023-03-21T10:49:14;19.60;44.30
14877;DHT22;22152;48.158;17.118;2023-03-21T10:51:52;19.60;43.20
14877;DHT22;22152;48.158;17.118;2023-03-21T10:54:47;19.70;43.10
14877;DHT22;22152;48.158;17.118;2023-03-21T10:57:22;19.60;42.90
14877;DHT22;22152;48.158;17.118;2023-03-21T11:00:22;19.50;43.00
14877;DHT22;22152;48.158;17.118;2023-03-21T11:02:57;19.40;42.70
14877;DHT22;22152;48.158;17.118;2023-03-21T11:05:54;19.60;42.60
14877;DHT22;22152;48.158;17.118;2023-03-21T11:08:40;19.90;42.10
14877;DHT22;22152;48.158;17.118;2023-03-21T11:11:37;20.40;40.90
14877;DHT22;22152;48.158;17.118;2023-03-21T11:17:29;20.90;39.80
14877;DHT22;22152;48.158;17.118;2023-03-21T11:20:15;20.70;39.70
14877;DHT22;22152;48.158;17.118;2023-03-21T11:23:02;20.30;40.20
14877;DHT22;22152;48.158;17.118;2023-03-21T11:25:41;20.30;40.40
14877;DHT22;22152;48.158;17.118;2023-03-21T11:28:37;20.50;40.10
14877;DHT22;22152;48.158;17.118;2023-03-21T11:31:19;20.70;39.60
14877;DHT22;22152;48.158;17.118;2023-03-21T11:34:07;20.70;39.60
14877;DHT22;22152;48.158;17.118;2023-03-21T11:37:01;20.80;39.80
14877;DHT22;22152;48.158;17.118;2023-03-21T11:39:37;20.70;39.70
14877;DHT22;22152;48.158;17.118;2023-03-21T11:42:32;20.40;40.00
14877;DHT22;22152;48.158;17.118;2023-03-21T11:45:19;20.00;40.50
14877;DHT22;22152;48.158;17.118;2023-03-21T11:48:16;19.80;40.70
14877;DHT22;22152;48.158;17.118;2023-03-21T11:50:50;19.60;40.80
14877;DHT22;22152;48.158;17.118;2023-03-21T11:56:58;20.00;40.80
14877;DHT22;22152;48.158;17.118;2023-03-21T12:00:17;19.90;40.70
14877;DHT22;22152;48.158;17.118;2023-03-21T12:06:33;19.90;40.70
14877;DHT22;22152;48.158;17.118;2023-03-21T12:16:45;19.20;41.70
14877;DHT22;22152;48.158;17.118;2023-03-21T12:20:13;19.20;42.30
14877;DHT22;22152;48.158;17.118;2023-03-21T12:26:37;19.50;41.70
14877;DHT22;22152;48.158;17.118;2023-03-21T12:39:29;20.30;40.10
14877;DHT22;22152;48.158;17.118;2023-03-21T12:45:45;20.80;38.90
14877;DHT22;22152;48.158;17.118;2023-03-21T12:51:26;20.60;38.50
14877;DHT22;22152;48.158;17.118;2023-03-21T12:54:29;20.50;39.00
14877;DHT22;22152;48.158;17.118;2023-03-21T12:57:07;20.60;39.20
14877;DHT22;22152;48.158;17.118;2023-03-21T13:03:40;20.80;38.90
14877;DHT22;22152;48.158;17.118;2023-03-21T13:06:36;20.60;39.10
14877;DHT22;22152;48.158;17.118;2023-03-21T13:09:16;20.20;39.90
14877;DHT22;22152;48.158;17.118;2023-03-21T13:12:23;19.90;39.70
14877;DHT22;22152;48.158;17.118;2023-03-21T13:21:43;19.80;40.20
14877;DHT22;22152;48.158;17.118;2023-03-21T13:25:36;19.90;40.10
14877;DHT22;22152;48.158;17.118;2023-03-21T13:28:01;20.10;40.00
14877;DHT22;22152;48.158;17.118;2023-03-21T13:31:20;20.10;40.00
14877;DHT22;22152;48.158;17.118;2023-03-21T13:33:58;20.20;39.80
14877;DHT22;22152;48.158;17.118;2023-03-21T13:36:51;20.10;39.70
14877;DHT22;22152;48.158;17.118;2023-03-21T13:39:26;19.90;40.50
14877;DHT22;22152;48.158;17.118;2023-03-21T13:42:22;19.60;40.30
14877;DHT22;22152;48.158;17.118;2023-03-21T13:45:09;19.30;40.70
14877;DHT22;22152;48.158;17.118;2023-03-21T13:48:05;19.00;41.10
14877;DHT22;22152;48.158;17.118;2023-03-21T13:50:51;18.60;41.60
14877;DHT22;22152;48.158;17.118;2023-03-21T14:05:23;17.50;43.70
14877;DHT22;22152;48.158;17.118;2023-03-21T14:08:00;17.40;44.20
14877;DHT22;22152;48.158;17.118;2023-03-21T14:11:04;17.40;44.30
14877;DHT22;22152;48.158;17.118;2023-03-21T14:13:45;17.40;44.30
14877;DHT22;22152;48.158;17.118;2023-03-21T14:16:32;17.40;44.50
14877;DHT22;22152;48.158;17.118;2023-03-21T14:19:12;17.40;44.60
14877;DHT22;22152;48.158;17.118;2023-03-21T14:21:58;17.50;44.50
14877;DHT22;22152;48.158;17.118;2023-03-21T14:24:37;17.50;44.50
14877;DHT22;22152;48.158;17.118;2023-03-21T14:27:27;17.60;44.50
14877;DHT22;22152;48.158;17.118;2023-03-21T14:30:18;17.70;44.50
14877;DHT22;22152;48.158;17.118;2023-03-21T14:33:25;17.80;44.30
14877;DHT22;22152;48.158;17.118;2023-03-21T14:36:24;17.90;44.10
14877;DHT22;22152;48.158;17.118;2023-03-21T14:39:16;17.90;44.20
14877;DHT22;22152;48.158;17.118;2023-03-21T14:42:14;17.90;44.20
14877;DHT22;22152;48.158;17.118;2023-03-21T14:44:50;17.80;44.20
14877;DHT22;22152;48.158;17.118;2023-03-21T14:48:07;17.70;44.20
14877;DHT22;22152;48.158;17.118;2023-03-21T14:51:00;17.60;44.40
14877;DHT22;22152;48.158;17.118;2023-03-21T14:53:56;17.50;44.80
14877;DHT22;22152;48.158;17.118;2023-03-21T14:56:28;17.30;45.00
14877;DHT22;22152;48.158;17.118;2023-03-21T14:59:25;17.10;45.00
14877;DHT22;22152;48.158;17.118;2023-03-21T15:02:02;16.90;45.40
14877;DHT22;22152;48.158;17.118;2023-03-21T15:05:07;16.80;45.60
14877;DHT22;22152;48.158;17.118;2023-03-21T15:07:40;16.70;45.90
14877;DHT22;22152;48.158;17.118;2023-03-21T15:10:33;16.60;46.10
14877;DHT22;22152;48.158;17.118;2023-03-21T15:16:04;16.50;46.50
14877;DHT22;22152;48.158;17.118;2023-03-21T15:18:39;16.40;46.40
14877;DHT22;22152;48.158;17.118;2023-03-21T15:21:40;16.30;46.50
14877;DHT22;22152;48.158;17.118;2023-03-21T15:24:26;16.30;46.80
14877;DHT22;22152;48.158;17.118;2023-03-21T15:27:23;16.20;47.50
14877;DHT22;22152;48.158;17.118;2023-03-21T15:29:56;16.00;47.50
14877;DHT22;22152;48.158;17.118;2023-03-21T15:32:50;15.90;48.00
14877;DHT22;22152;48.158;17.118;2023-03-21T15:35:48;15.90;48.40
14877;DHT22;22152;48.158;17.118;2023-03-21T15:38:39;15.70;48.60
14877;DHT22;22152;48.158;17.118;2023-03-21T15:41:33;15.70;49.20
14877;DHT22;22152;48.158;17.118;2023-03-21T15:44:12;15.70;49.20
14877;DHT22;22152;48.158;17.118;2023-03-21T15:47:12;15.70;49.70
14877;DHT22;22152;48.158;17.118;2023-03-21T15:49:52;15.80;49.30
14877;DHT22;22152;48.158;17.118;2023-03-21T15:52:52;16.00;49.80
14877;DHT22;22152;48.158;17.118;2023-03-21T15:55:46;16.10;49.30
14877;DHT22;22152;48.158;17.118;2023-03-21T15:58:47;16.30;48.70
14877;DHT22;22152;48.158;17.118;2023-03-21T16:01:21;16.40;48.30
14877;DHT22;22152;48.158;17.118;2023-03-21T16:04:14;16.60;48.60
14877;DHT22;22152;48.158;17.118;2023-03-21T16:06:57;16.70;48.60
14877;DHT22;22152;48.158;17.118;2023-03-21T16:09:58;16.70;48.80
14877;DHT22;22152;48.158;17.118;2023-03-21T16:12:31;16.80;49.10
14877;DHT22;22152;48.158;17.118;2023-03-21T16:15:25;16.80;48.80
14877;DHT22;22152;48.158;17.118;2023-03-21T16:18:05;16.80;48.60
14877;DHT22;22152;48.158;17.118;2023-03-21T16:20:52;16.90;48.50
14877;DHT22;22152;48.158;17.118;2023-03-21T16:23:31;16.90;48.30
14877;DHT22;22152;48.158;17.118;2023-03-21T16:26:23;16.90;48.20
14877;DHT22;22152;48.158;17.118;2023-03-21T16:29:04;16.90;48.40
14877;DHT22;22152;48.158;17.118;2023-03-21T16:31:51;16.80;48.30
14877;DHT22;22152;48.158;17.118;2023-03-21T16:34:38;16.70;48.10
14877;DHT22;22152;48.158;17.118;2023-03-21T16:37:31;16.70;47.90
14877;DHT22;22152;48.158;17.118;2023-03-21T16:40:20;16.70;48.50
14877;DHT22;22152;48.158;17.118;2023-03-21T16:43:16;16.60;48.70
14877;DHT22;22152;48.158;17.118;2023-03-21T16:45:48;16.60;48.80
14877;DHT22;22152;48.158;17.118;2023-03-21T16:48:42;16.60;49.00
14877;DHT22;22152;48.158;17.118;2023-03-21T16:51:22;16.50;49.20
14877;DHT22;22152;48.158;17.118;2023-03-21T16:54:16;16.40;49.40
14877;DHT22;22152;48.158;17.118;2023-03-21T16:56:53;16.30;49.70
14877;DHT22;22152;48.158;17.118;2023-03-21T16:59:46;16.20;50.00
14877;DHT22;22152;48.158;17.118;2023-03-21T17:02:19;16.00;50.40
14877;DHT22;22152;48.158;17.118;2023-03-21T17:05:14;15.90;50.90
14877;DHT22;22152;48.158;17.118;2023-03-21T17:07:46;15.80;51.40
14877;DHT22;22152;48.158;17.118;2023-03-21T17:10:39;15.70;51.70
14877;DHT22;22152;48.158;17.118;2023-03-21T17:13:11;15.70;51.90
14877;DHT22;22152;48.158;17.118;2023-03-21T17:16:04;15.60;52.00
14877;DHT22;22152;48.158;17.118;2023-03-21T17:18:44;15.60;52.50
14877;DHT22;22152;48.158;17.118;2023-03-21T17:21:31;15.60;52.40
14877;DHT22;22152;48.158;17.118;2023-03-21T17:24:10;15.50;52.30
14877;DHT22;22152;48.158;17.118;2023-03-21T17:26:56;15.50;52.10
14877;DHT22;22152;48.158;17.118;2023-03-21T17:29:37;15.50;52.70
14877;DHT22;22152;48.158;17.118;2023-03-21T17:32:23;15.40;51.90
14877;DHT22;22152;48.158;17.118;2023-03-21T17:35:09;15.40;52.30
14877;DHT22;22152;48.158;17.118;2023-03-21T17:38:02;15.30;52.90
14877;DHT22;22152;48.158;17.118;2023-03-21T17:40:35;15.20;53.30
14877;DHT22;22152;48.158;17.118;2023-03-21T17:43:28;15.10;53.50
14877;DHT22;22152;48.158;17.118;2023-03-21T17:46:00;15.00;53.30
14877;DHT22;22152;48.158;17.118;2023-03-21T17:48:56;15.00;53.20
14877;DHT22;22152;48.158;17.118;2023-03-21T17:51:28;15.00;53.30
14877;DHT22;22152;48.158;17.118;2023-03-21T17:54:21;14.90;53.30
14877;DHT22;22152;48.158;17.118;2023-03-21T17:56:53;14.90;53.40
14877;DHT22;22152;48.158;17.118;2023-03-21T17:59:46;14.90;53.40
14877;DHT22;22152;48.158;17.118;2023-03-21T18:02:18;14.90;53.40
14877;DHT22;22152;48.158;17.118;2023-03-21T18:05:11;14.90;53.60
14877;DHT22;22152;48.158;17.118;2023-03-21T18:07:44;14.80;53.90
14877;DHT22;22152;48.158;17.118;2023-03-21T18:10:38;14.80;54.00
14877;DHT22;22152;48.158;17.118;2023-03-21T18:13:10;14.80;54.00
14877;DHT22;22152;48.158;17.118;2023-03-21T18:16:03;14.80;54.10
14877;DHT22;22152;48.158;17.118;2023-03-21T18:18:36;14.70;54.50
14877;DHT22;22152;48.158;17.118;2023-03-21T18:21:32;14.70;54.50
14877;DHT22;22152;48.158;17.118;2023-03-21T18:24:06;14.70;54.50
14877;DHT22;22152;48.158;17.118;2023-03-21T18:26:59;14.70;54.10
14877;DHT22;22152;48.158;17.118;2023-03-21T18:29:31;14.70;53.80
14877;DHT22;22152;48.158;17.118;2023-03-21T18:32:24;14.70;53.70
14877;DHT22;22152;48.158;17.118;2023-03-21T18:34:57;14.70;53.70
14877;DHT22;22152;48.158;17.118;2023-03-21T18:37:50;14.70;53.70
14877;DHT22;22152;48.158;17.118;2023-03-21T18:40:22;14.70;53.80
14877;DHT22;22152;48.158;17.118;2023-03-21T18:43:15;14.70;53.70
14877;DHT22;22152;48.158;17.118;2023-03-21T18:45:47;14.70;53.70
14877;DHT22;22152;48.158;17.118;2023-03-21T18:48:40;14.70;54.00
14877;DHT22;22152;48.158;17.118;2023-03-21T18:51:13;14.60;54.40
14877;DHT22;22152;48.158;17.118;2023-03-21T18:54:07;14.60;54.70
14877;DHT22;22152;48.158;17.118;2023-03-21T18:56:39;14.60;55.00
14877;DHT22;22152;48.158;17.118;2023-03-21T18:59:36;14.50;55.10
14877;DHT22;22152;48.158;17.118;2023-03-21T19:02:12;14.50;55.40
14877;DHT22;22152;48.158;17.118;2023-03-21T19:05:06;14.50;55.70